sensor_id;sensor_type;location;lat;lon;timestamp;temperature;humidity
14749;DHT22;7466;53.574;9.976;2023-07-22T00:00:01;13.70;99.90
14749;DHT22;7466;53.574;9.976;2023-07-22T00:02:31;13.70;99.90
14749;DHT22;7466;53.574;9.976;2023-07-22T00:04:57;13.70;99.90
14749;DHT22;7466;53.574;9.976;2023-07-22T00:07:24;13.60;99.90
14749;DHT22;7466;53.574;9.976;2023-07-22T00:09:52;13.60;99.90
14749;DHT22;7466;53.574;9.976;2023-07-22T00:12:18;13.60;99.90
14749;DHT22;7466;53.574;9.976;2023-07-22T00:14:46;13.60;99.90
14749;DHT22;7466;53.574;9.976;2023-07-22T00:17:13;13.60;99.90
14749;DHT22;7466;53.574;9.976;2023-07-22T00:19:40;13.50;99.90
14749;DHT22;7466;53.574;9.976;2023-07-22T00:22:07;13.50;99.90
14749;DHT22;7466;53.574;9.976;2023-07-22T00:24:33;13.50;99.90
14749;DHT22;7466;53.574;9.976;2023-07-22T00:27:00;13.50;99.90
14749;DHT22;7466;53.574;9.976;2023-07-22T00:29:27;13.50;99.90
14749;DHT22;7466;53.574;9.976;2023-07-22T00:31:55;13.50;99.90
14749;DHT22;7466;53.574;9.976;2023-07-22T00:34:22;13.50;99.90
14749;DHT22;7466;53.574;9.976;2023-07-22T00:36:49;13.40;99.90
14749;DHT22;7466;53.574;9.976;2023-07-22T00:39:15;13.40;99.90
14749;DHT22;7466;53.574;9.976;2023-07-22T00:41:42;13.40;99.90
14749;DHT22;7466;53.574;9.976;2023-07-22T00:44:10;13.40;99.90
14749;DHT22;7466;53.574;9.976;2023-07-22T00:46:38;13.40;99.90
14749;DHT22;7466;53.574;9.976;2023-07-22T00:49:07;13.40;99.90
14749;DHT22;7466;53.574;9.976;2023-07-22T00:51:34;13.40;99.90
14749;DHT22;7466;53.574;9.976;2023-07-22T00:54:01;13.40;99.90
14749;DHT22;7466;53.574;9.976;2023-07-22T00:56:30;13.40;99.90
14749;DHT22;7466;53.574;9.976;2023-07-22T00:58:59;13.40;99.90
14749;DHT22;7466;53.574;9.976;2023-07-22T01:01:26;13.30;99.90
14749;DHT22;7466;53.574;9.976;2023-07-22T01:03:52;13.30;99.90
14749;DHT22;7466;53.574;9.976;2023-07-22T01:06:21;13.30;99.90
14749;DHT22;7466;53.574;9.976;2023-07-22T01:08:50;13.30;99.90
14749;DHT22;7466;53.574;9.976;2023-07-22T01:11:17;13.30;99.90
14749;DHT22;7466;53.574;9.976;2023-07-22T01:13:44;13.30;99.90
14749;DHT22;7466;53.574;9.976;2023-07-22T01:16:10;13.20;99.90
14749;DHT22;7466;53.574;9.976;2023-07-22T01:18:38;13.20;99.90
14749;DHT22;7466;53.574;9.976;2023-07-22T01:21:06;13.20;99.90
14749;DHT22;7466;53.574;9.976;2023-07-22T01:23:34;13.20;99.90
14749;DHT22;7466;53.574;9.976;2023-07-22T01:26:02;13.20;99.90
14749;DHT22;7466;53.574;9.976;2023-07-22T01:28:29;13.20;99.90
14749;DHT22;7466;53.574;9.976;2023-07-22T01:30:56;13.10;99.90
14749;DHT22;7466;53.574;9.976;2023-07-22T01:33:23;13.10;99.90
14749;DHT22;7466;53.574;9.976;2023-07-22T01:35:52;13.10;99.90
14749;DHT22;7466;53.574;9.976;2023-07-22T01:38:19;13.10;99.90
14749;DHT22;7466;53.574;9.976;2023-07-22T01:40:47;13.10;99.90
14749;DHT22;7466;53.574;9.976;2023-07-22T01:43:14;13.00;99.90
14749;DHT22;7466;53.574;9.976;2023-07-22T01:45:41;13.00;99.90
14749;DHT22;7466;53.574;9.976;2023-07-22T01:48:08;13.00;99.90
14749;DHT22;7466;53.574;9.976;2023-07-22T01:50:35;13.00;99.90
14749;DHT22;7466;53.574;9.976;2023-07-22T01:53:01;13.00;99.90
14749;DHT22;7466;53.574;9.976;2023-07-22T01:55:29;12.90;99.90
14749;DHT22;7466;53.574;9.976;2023-07-22T01:57:59;12.90;99.90
14749;DHT22;7466;53.574;9.976;2023-07-22T02:00:25;12.90;99.90
14749;DHT22;7466;53.574;9.976;2023-07-22T02:02:52;12.90;99.90
14749;DHT22;7466;53.574;9.976;2023-07-22T02:05:19;12.90;99.90
14749;DHT22;7466;53.574;9.976;2023-07-22T02:07:46;12.90;99.90
14749;DHT22;7466;53.574;9.976;2023-07-22T02:10:13;12.80;99.90
14749;DHT22;7466;53.574;9.976;2023-07-22T02:12:40;12.80;99.90
14749;DHT22;7466;53.574;9.976;2023-07-22T02:15:09;12.80;99.90
14749;DHT22;7466;53.574;9.976;2023-07-22T02:17:36;12.80;99.90
14749;DHT22;7466;53.574;9.976;2023-07-22T02:20:03;12.80;99.90
14749;DHT22;7466;53.574;9.976;2023-07-22T02:22:31;12.70;99.90
14749;DHT22;7466;53.574;9.976;2023-07-22T02:24:57;12.70;99.90
14749;DHT22;7466;53.574;9.976;2023-07-22T02:27:24;12.70;99.90
14749;DHT22;7466;53.574;9.976;2023-07-22T02:29:51;12.70;99.90
14749;DHT22;7466;53.574;9.976;2023-07-22T02:32:19;12.70;99.90
14749;DHT22;7466;53.574;9.976;2023-07-22T02:34:46;12.70;99.90
14749;DHT22;7466;53.574;9.976;2023-07-22T02:37:13;12.70;99.90
14749;DHT22;7466;53.574;9.976;2023-07-22T02:39:39;12.60;99.90
14749;DHT22;7466;53.574;9.976;2023-07-22T02:42:07;12.60;99.90
14749;DHT22;7466;53.574;9.976;2023-07-22T02:44:33;12.70;99.90
14749;DHT22;7466;53.574;9.976;2023-07-22T02:47:00;12.60;99.90
14749;DHT22;7466;53.574;9.976;2023-07-22T02:49:28;12.60;99.90
14749;DHT22;7466;53.574;9.976;2023-07-22T02:51:55;12.60;99.90
14749;DHT22;7466;53.574;9.976;2023-07-22T02:54:22;12.50;99.90
14749;DHT22;7466;53.574;9.976;2023-07-22T02:56:49;12.50;99.90
14749;DHT22;7466;53.574;9.976;2023-07-22T02:59:15;12.50;99.90
14749;DHT22;7466;53.574;9.976;2023-07-22T03:01:42;12.50;99.90
14749;DHT22;7466;53.574;9.976;2023-07-22T03:04:10;12.50;99.90
14749;DHT22;7466;53.574;9.976;2023-07-22T03:06:39;12.50;99.90
14749;DHT22;7466;53.574;9.976;2023-07-22T03:09:07;12.50;99.90
14749;DHT22;7466;53.574;9.976;2023-07-22T03:11:34;12.50;99.90
14749;DHT22;7466;53.574;9.976;2023-07-22T03:14:01;12.50;99.90
14749;DHT22;7466;53.574;9.976;2023-07-22T03:16:28;12.50;99.90
14749;DHT22;7466;53.574;9.976;2023-07-22T03:18:57;12.50;99.90
14749;DHT22;7466;53.574;9.976;2023-07-22T03:21:24;12.50;99.90
14749;DHT22;7466;53.574;9.976;2023-07-22T03:23:52;12.50;99.90
14749;DHT22;7466;53.574;9.976;2023-07-22T03:26:18;12.50;99.90
14749;DHT22;7466;53.574;9.976;2023-07-22T03:28:46;12.50;99.90
14749;DHT22;7466;53.574;9.976;2023-07-22T03:31:13;12.60;99.90
14749;DHT22;7466;53.574;9.976;2023-07-22T03:33:40;12.60;99.90
14749;DHT22;7466;53.574;9.976;2023-07-22T03:36:11;12.60;99.90
14749;DHT22;7466;53.574;9.976;2023-07-22T03:38:38;12.60;99.90
14749;DHT22;7466;53.574;9.976;2023-07-22T03:41:06;12.60;99.90
14749;DHT22;7466;53.574;9.976;2023-07-22T03:43:33;12.60;99.90
14749;DHT22;7466;53.574;9.976;2023-07-22T03:46:00;12.70;99.90
14749;DHT22;7466;53.574;9.976;2023-07-22T03:48:27;12.70;99.90
14749;DHT22;7466;53.574;9.976;2023-07-22T03:50:53;12.70;99.90
14749;DHT22;7466;53.574;9.976;2023-07-22T03:53:20;12.70;99.90
14749;DHT22;7466;53.574;9.976;2023-07-22T03:55:47;12.60;99.90
14749;DHT22;7466;53.574;9.976;2023-07-22T03:58:15;12.70;99.90
14749;DHT22;7466;53.574;9.976;2023-07-22T04:00:42;12.70;99.90
14749;DHT22;7466;53.574;9.976;2023-07-22T04:03:09;12.70;99.90
14749;DHT22;7466;53.574;9.976;2023-07-22T04:05:35;12.70;99.90
14749;DHT22;7466;53.574;9.976;2023-07-22T04:08:02;12.80;99.90
14749;DHT22;7466;53.574;9.976;2023-07-22T04:10:29;12.80;99.90
14749;DHT22;7466;53.574;9.976;2023-07-22T04:12:56;12.80;99.90
14749;DHT22;7466;53.574;9.976;2023-07-22T04:15:24;12.80;99.90
14749;DHT22;7466;53.574;9.976;2023-07-22T04:17:52;12.70;99.90
14749;DHT22;7466;53.574;9.976;2023-07-22T04:20:18;12.70;99.90
14749;DHT22;7466;53.574;9.976;2023-07-22T04:22:45;12.70;99.90
14749;DHT22;7466;53.574;9.976;2023-07-22T04:25:12;12.70;99.90
14749;DHT22;7466;53.574;9.976;2023-07-22T04:27:39;12.70;99.90
14749;DHT22;7466;53.574;9.976;2023-07-22T04:30:07;12.70;99.90
14749;DHT22;7466;53.574;9.976;2023-07-22T04:32:36;12.80;99.90
14749;DHT22;7466;53.574;9.976;2023-07-22T04:35:04;12.90;99.90
14749;DHT22;7466;53.574;9.976;2023-07-22T04:37:32;12.90;99.90
14749;DHT22;7466;53.574;9.976;2023-07-22T04:39:58;12.80;99.90
14749;DHT22;7466;53.574;9.976;2023-07-22T04:42:25;12.80;99.90
14749;DHT22;7466;53.574;9.976;2023-07-22T04:44:53;12.90;99.90
14749;DHT22;7466;53.574;9.976;2023-07-22T04:47:19;12.90;99.90
14749;DHT22;7466;53.574;9.976;2023-07-22T04:49:48;12.90;99.90
14749;DHT22;7466;53.574;9.976;2023-07-22T04:52:14;12.90;99.90
14749;DHT22;7466;53.574;9.976;2023-07-22T04:54:42;12.90;99.90
14749;DHT22;7466;53.574;9.976;2023-07-22T04:57:12;12.90;99.90
14749;DHT22;7466;53.574;9.976;2023-07-22T04:59:39;12.80;99.90
14749;DHT22;7466;53.574;9.976;2023-07-22T05:02:06;12.80;99.90
14749;DHT22;7466;53.574;9.976;2023-07-22T05:04:32;12.90;99.90
14749;DHT22;7466;53.574;9.976;2023-07-22T05:07:01;12.90;99.90
14749;DHT22;7466;53.574;9.976;2023-07-22T05:09:28;13.00;99.90
14749;DHT22;7466;53.574;9.976;2023-07-22T05:11:54;13.10;99.90
14749;DHT22;7466;53.574;9.976;2023-07-22T05:14:21;13.10;99.90
14749;DHT22;7466;53.574;9.976;2023-07-22T05:16:48;13.20;99.90
14749;DHT22;7466;53.574;9.976;2023-07-22T05:19:15;13.20;99.90
14749;DHT22;7466;53.574;9.976;2023-07-22T05:21:41;13.20;99.90
14749;DHT22;7466;53.574;9.976;2023-07-22T05:24:09;13.20;99.90
14749;DHT22;7466;53.574;9.976;2023-07-22T05:26:36;13.30;99.90
14749;DHT22;7466;53.574;9.976;2023-07-22T05:29:03;13.30;99.90
14749;DHT22;7466;53.574;9.976;2023-07-22T05:31:30;13.30;99.90
14749;DHT22;7466;53.574;9.976;2023-07-22T05:33:57;13.40;99.90
14749;DHT22;7466;53.574;9.976;2023-07-22T05:36:24;13.50;99.90
14749;DHT22;7466;53.574;9.976;2023-07-22T05:38:50;13.50;99.90
14749;DHT22;7466;53.574;9.976;2023-07-22T05:41:19;13.60;99.90
14749;DHT22;7466;53.574;9.976;2023-07-22T05:43:46;13.60;99.90
14749;DHT22;7466;53.574;9.976;2023-07-22T05:46:12;13.60;99.90
14749;DHT22;7466;53.574;9.976;2023-07-22T05:48:39;13.70;99.90
14749;DHT22;7466;53.574;9.976;2023-07-22T05:51:06;13.70;99.90
14749;DHT22;7466;53.574;9.976;2023-07-22T05:53:33;13.80;99.90
14749;DHT22;7466;53.574;9.976;2023-07-22T05:56:00;13.80;99.90
14749;DHT22;7466;53.574;9.976;2023-07-22T05:58:28;14.00;99.90
14749;DHT22;7466;53.574;9.976;2023-07-22T06:00:55;14.10;99.90
14749;DHT22;7466;53.574;9.976;2023-07-22T06:03:22;14.20;99.90
14749;DHT22;7466;53.574;9.976;2023-07-22T06:05:48;14.30;99.90
14749;DHT22;7466;53.574;9.976;2023-07-22T06:08:15;14.30;99.90
14749;DHT22;7466;53.574;9.976;2023-07-22T06:10:42;14.40;99.90
14749;DHT22;7466;53.574;9.976;2023-07-22T06:13:09;14.40;99.90
14749;DHT22;7466;53.574;9.976;2023-07-22T06:15:37;14.40;99.90
14749;DHT22;7466;53.574;9.976;2023-07-22T06:18:04;14.50;99.90
14749;DHT22;7466;53.574;9.976;2023-07-22T06:20:34;14.60;99.90
14749;DHT22;7466;53.574;9.976;2023-07-22T06:23:01;14.70;99.90
14749;DHT22;7466;53.574;9.976;2023-07-22T06:25:28;14.70;99.90
14749;DHT22;7466;53.574;9.976;2023-07-22T06:27:54;14.90;99.90
14749;DHT22;7466;53.574;9.976;2023-07-22T06:30:23;14.60;99.90
14749;DHT22;7466;53.574;9.976;2023-07-22T06:32:54;14.60;99.90
14749;DHT22;7466;53.574;9.976;2023-07-22T06:35:21;14.80;99.90
14749;DHT22;7466;53.574;9.976;2023-07-22T06:37:48;14.80;99.90
14749;DHT22;7466;53.574;9.976;2023-07-22T06:40:14;15.00;99.90
14749;DHT22;7466;53.574;9.976;2023-07-22T06:42:41;15.10;99.90
14749;DHT22;7466;53.574;9.976;2023-07-22T06:45:08;15.30;99.90
14749;DHT22;7466;53.574;9.976;2023-07-22T06:47:35;15.40;99.90
14749;DHT22;7466;53.574;9.976;2023-07-22T06:50:04;15.30;99.90
14749;DHT22;7466;53.574;9.976;2023-07-22T06:52:31;15.50;99.90
14749;DHT22;7466;53.574;9.976;2023-07-22T06:54:58;15.70;99.90
14749;DHT22;7466;53.574;9.976;2023-07-22T06:57:25;15.60;99.90
14749;DHT22;7466;53.574;9.976;2023-07-22T06:59:53;15.70;99.90
14749;DHT22;7466;53.574;9.976;2023-07-22T07:02:20;15.80;99.90
14749;DHT22;7466;53.574;9.976;2023-07-22T07:04:47;16.00;99.90
14749;DHT22;7466;53.574;9.976;2023-07-22T07:07:16;16.00;99.90
14749;DHT22;7466;53.574;9.976;2023-07-22T07:09:43;16.30;99.90
14749;DHT22;7466;53.574;9.976;2023-07-22T07:12:09;16.10;99.90
14749;DHT22;7466;53.574;9.976;2023-07-22T07:14:36;16.10;99.90
14749;DHT22;7466;53.574;9.976;2023-07-22T07:17:03;16.10;99.90
14749;DHT22;7466;53.574;9.976;2023-07-22T07:19:30;16.30;99.90
14749;DHT22;7466;53.574;9.976;2023-07-22T07:21:57;16.50;99.90
14749;DHT22;7466;53.574;9.976;2023-07-22T07:24:25;16.60;99.90
14749;DHT22;7466;53.574;9.976;2023-07-22T07:26:53;16.60;99.90
14749;DHT22;7466;53.574;9.976;2023-07-22T07:29:19;16.30;99.90
14749;DHT22;7466;53.574;9.976;2023-07-22T07:31:46;16.70;99.90
14749;DHT22;7466;53.574;9.976;2023-07-22T07:34:13;16.70;99.90
14749;DHT22;7466;53.574;9.976;2023-07-22T07:36:40;16.60;99.90
14749;DHT22;7466;53.574;9.976;2023-07-22T07:39:06;17.00;99.90
14749;DHT22;7466;53.574;9.976;2023-07-22T07:41:34;17.10;99.90
14749;DHT22;7466;53.574;9.976;2023-07-22T07:44:03;17.20;99.90
14749;DHT22;7466;53.574;9.976;2023-07-22T07:46:30;17.20;99.90
14749;DHT22;7466;53.574;9.976;2023-07-22T07:48:59;17.10;99.90
14749;DHT22;7466;53.574;9.976;2023-07-22T07:51:27;17.00;99.90
14749;DHT22;7466;53.574;9.976;2023-07-22T07:53:55;16.80;99.90
14749;DHT22;7466;53.574;9.976;2023-07-22T07:56:22;16.70;99.90
14749;DHT22;7466;53.574;9.976;2023-07-22T07:58:52;16.70;99.90
14749;DHT22;7466;53.574;9.976;2023-07-22T08:01:18;16.80;99.90
14749;DHT22;7466;53.574;9.976;2023-07-22T08:03:46;16.70;99.90
14749;DHT22;7466;53.574;9.976;2023-07-22T08:06:13;16.90;99.90
14749;DHT22;7466;53.574;9.976;2023-07-22T08:08:40;17.00;99.90
14749;DHT22;7466;53.574;9.976;2023-07-22T08:11:09;17.10;99.90
14749;DHT22;7466;53.574;9.976;2023-07-22T08:13:37;17.30;99.90
14749;DHT22;7466;53.574;9.976;2023-07-22T08:16:07;17.40;99.90
14749;DHT22;7466;53.574;9.976;2023-07-22T08:18:34;17.60;99.90
14749;DHT22;7466;53.574;9.976;2023-07-22T08:21:02;17.70;99.90
14749;DHT22;7466;53.574;9.976;2023-07-22T08:23:29;17.80;99.90
14749;DHT22;7466;53.574;9.976;2023-07-22T08:25:56;17.60;99.90
14749;DHT22;7466;53.574;9.976;2023-07-22T08:28:23;17.60;99.90
14749;DHT22;7466;53.574;9.976;2023-07-22T08:30:50;17.60;99.90
14749;DHT22;7466;53.574;9.976;2023-07-22T08:33:22;17.60;99.90
14749;DHT22;7466;53.574;9.976;2023-07-22T08:35:49;17.70;99.90
14749;DHT22;7466;53.574;9.976;2023-07-22T08:38:16;17.60;99.90
14749;DHT22;7466;53.574;9.976;2023-07-22T08:40:43;17.60;99.90
14749;DHT22;7466;53.574;9.976;2023-07-22T08:43:11;17.60;99.90
14749;DHT22;7466;53.574;9.976;2023-07-22T08:45:38;17.60;99.90
14749;DHT22;7466;53.574;9.976;2023-07-22T08:48:07;17.70;99.90
14749;DHT22;7466;53.574;9.976;2023-07-22T08:50:43;17.90;99.90
14749;DHT22;7466;53.574;9.976;2023-07-22T08:53:12;18.20;99.90
14749;DHT22;7466;53.574;9.976;2023-07-22T08:55:39;17.90;99.90
14749;DHT22;7466;53.574;9.976;2023-07-22T08:58:07;18.10;99.90
14749;DHT22;7466;53.574;9.976;2023-07-22T09:00:34;18.20;99.90
14749;DHT22;7466;53.574;9.976;2023-07-22T09:03:02;18.00;99.90
14749;DHT22;7466;53.574;9.976;2023-07-22T09:05:31;17.90;99.90
14749;DHT22;7466;53.574;9.976;2023-07-22T09:08:02;18.10;99.90
14749;DHT22;7466;53.574;9.976;2023-07-22T09:10:29;18.40;99.90
14749;DHT22;7466;53.574;9.976;2023-07-22T09:12:56;18.40;99.90
14749;DHT22;7466;53.574;9.976;2023-07-22T09:15:24;18.50;99.90
14749;DHT22;7466;53.574;9.976;2023-07-22T09:17:51;18.80;99.90
14749;DHT22;7466;53.574;9.976;2023-07-22T09:20:19;18.60;99.90
14749;DHT22;7466;53.574;9.976;2023-07-22T09:22:47;19.00;99.90
14749;DHT22;7466;53.574;9.976;2023-07-22T09:25:17;19.10;99.90
14749;DHT22;7466;53.574;9.976;2023-07-22T09:27:45;19.00;99.90
14749;DHT22;7466;53.574;9.976;2023-07-22T09:30:26;18.70;99.90
14749;DHT22;7466;53.574;9.976;2023-07-22T09:32:55;18.80;99.90
14749;DHT22;7466;53.574;9.976;2023-07-22T09:35:22;19.10;99.90
14749;DHT22;7466;53.574;9.976;2023-07-22T09:37:49;19.30;99.90
14749;DHT22;7466;53.574;9.976;2023-07-22T09:40:20;19.70;99.90
14749;DHT22;7466;53.574;9.976;2023-07-22T09:42:49;19.70;99.90
14749;DHT22;7466;53.574;9.976;2023-07-22T09:45:16;19.80;99.90
14749;DHT22;7466;53.574;9.976;2023-07-22T09:47:44;19.40;99.90
14749;DHT22;7466;53.574;9.976;2023-07-22T09:50:14;19.50;99.90
14749;DHT22;7466;53.574;9.976;2023-07-22T09:52:46;20.00;99.90
14749;DHT22;7466;53.574;9.976;2023-07-22T09:55:15;19.50;99.90
14749;DHT22;7466;53.574;9.976;2023-07-22T09:57:46;19.70;99.90
14749;DHT22;7466;53.574;9.976;2023-07-22T10:00:14;20.00;99.90
14749;DHT22;7466;53.574;9.976;2023-07-22T10:02:43;19.80;99.90
14749;DHT22;7466;53.574;9.976;2023-07-22T10:05:14;19.70;99.90
14749;DHT22;7466;53.574;9.976;2023-07-22T10:07:46;19.30;99.90
14749;DHT22;7466;53.574;9.976;2023-07-22T10:10:16;19.30;99.90
14749;DHT22;7466;53.574;9.976;2023-07-22T10:12:44;19.60;99.90
14749;DHT22;7466;53.574;9.976;2023-07-22T10:15:12;19.90;99.90
14749;DHT22;7466;53.574;9.976;2023-07-22T10:17:40;19.70;99.90
14749;DHT22;7466;53.574;9.976;2023-07-22T10:20:08;19.50;99.90
14749;DHT22;7466;53.574;9.976;2023-07-22T10:22:41;20.00;99.90
14749;DHT22;7466;53.574;9.976;2023-07-22T10:25:08;20.20;99.90
14749;DHT22;7466;53.574;9.976;2023-07-22T10:27:36;20.30;99.90
14749;DHT22;7466;53.574;9.976;2023-07-22T10:30:08;20.40;99.90
14749;DHT22;7466;53.574;9.976;2023-07-22T10:32:38;20.40;99.90
14749;DHT22;7466;53.574;9.976;2023-07-22T10:35:08;20.10;99.90
14749;DHT22;7466;53.574;9.976;2023-07-22T10:37:36;20.40;99.90
14749;DHT22;7466;53.574;9.976;2023-07-22T10:40:25;20.30;99.90
14749;DHT22;7466;53.574;9.976;2023-07-22T10:42:53;20.20;99.90
14749;DHT22;7466;53.574;9.976;2023-07-22T10:45:26;20.50;99.90
14749;DHT22;7466;53.574;9.976;2023-07-22T10:48:05;20.50;99.90
14749;DHT22;7466;53.574;9.976;2023-07-22T10:50:41;20.80;99.90
14749;DHT22;7466;53.574;9.976;2023-07-22T10:53:13;20.90;99.90
14749;DHT22;7466;53.574;9.976;2023-07-22T10:56:02;20.90;99.90
14749;DHT22;7466;53.574;9.976;2023-07-22T10:58:30;21.10;99.90
14749;DHT22;7466;53.574;9.976;2023-07-22T11:01:21;20.90;99.90
14749;DHT22;7466;53.574;9.976;2023-07-22T11:04:09;20.80;99.90
14749;DHT22;7466;53.574;9.976;2023-07-22T11:06:38;20.90;99.90
14749;DHT22;7466;53.574;9.976;2023-07-22T11:09:05;21.20;99.90
14749;DHT22;7466;53.574;9.976;2023-07-22T11:11:36;21.00;99.90
14749;DHT22;7466;53.574;9.976;2023-07-22T11:14:17;21.60;99.90
14749;DHT22;7466;53.574;9.976;2023-07-22T11:16:46;21.90;99.90
14749;DHT22;7466;53.574;9.976;2023-07-22T11:19:14;21.40;99.90
14749;DHT22;7466;53.574;9.976;2023-07-22T11:21:41;21.10;99.90
14749;DHT22;7466;53.574;9.976;2023-07-22T11:24:08;21.20;99.90
14749;DHT22;7466;53.574;9.976;2023-07-22T11:26:35;20.80;99.90
14749;DHT22;7466;53.574;9.976;2023-07-22T11:29:04;20.60;99.90
14749;DHT22;7466;53.574;9.976;2023-07-22T11:31:31;20.80;99.90
14749;DHT22;7466;53.574;9.976;2023-07-22T11:33:59;20.80;99.90
14749;DHT22;7466;53.574;9.976;2023-07-22T11:36:26;20.50;99.90
14749;DHT22;7466;53.574;9.976;2023-07-22T11:38:53;20.40;99.90
14749;DHT22;7466;53.574;9.976;2023-07-22T11:41:20;20.50;99.90
14749;DHT22;7466;53.574;9.976;2023-07-22T11:43:48;20.50;99.90
14749;DHT22;7466;53.574;9.976;2023-07-22T11:46:14;20.40;99.90
14749;DHT22;7466;53.574;9.976;2023-07-22T11:48:49;20.40;99.90
14749;DHT22;7466;53.574;9.976;2023-07-22T11:51:19;20.00;99.90
14749;DHT22;7466;53.574;9.976;2023-07-22T11:53:47;20.00;99.90
14749;DHT22;7466;53.574;9.976;2023-07-22T11:56:18;20.20;99.90
14749;DHT22;7466;53.574;9.976;2023-07-22T11:58:49;20.60;99.90
14749;DHT22;7466;53.574;9.976;2023-07-22T12:01:16;21.00;99.90
14749;DHT22;7466;53.574;9.976;2023-07-22T12:03:43;20.40;99.90
14749;DHT22;7466;53.574;9.976;2023-07-22T12:06:10;20.10;99.90
14749;DHT22;7466;53.574;9.976;2023-07-22T12:08:43;20.30;99.90
14749;DHT22;7466;53.574;9.976;2023-07-22T12:11:16;20.40;99.90
14749;DHT22;7466;53.574;9.976;2023-07-22T12:13:43;20.50;99.90
14749;DHT22;7466;53.574;9.976;2023-07-22T12:16:12;20.60;99.90
14749;DHT22;7466;53.574;9.976;2023-07-22T12:18:43;20.80;99.90
14749;DHT22;7466;53.574;9.976;2023-07-22T12:21:10;21.70;99.90
14749;DHT22;7466;53.574;9.976;2023-07-22T12:23:38;21.60;99.90
14749;DHT22;7466;53.574;9.976;2023-07-22T12:26:05;21.40;99.90
14749;DHT22;7466;53.574;9.976;2023-07-22T12:28:32;21.20;99.90
14749;DHT22;7466;53.574;9.976;2023-07-22T12:30:58;21.10;99.90
14749;DHT22;7466;53.574;9.976;2023-07-22T12:33:26;20.80;99.90
14749;DHT22;7466;53.574;9.976;2023-07-22T12:35:53;20.40;99.90
14749;DHT22;7466;53.574;9.976;2023-07-22T12:38:20;20.30;99.90
14749;DHT22;7466;53.574;9.976;2023-07-22T12:40:48;20.20;99.90
14749;DHT22;7466;53.574;9.976;2023-07-22T12:43:15;20.10;99.90
14749;DHT22;7466;53.574;9.976;2023-07-22T12:45:42;19.90;99.90
14749;DHT22;7466;53.574;9.976;2023-07-22T12:48:09;19.80;99.90
14749;DHT22;7466;53.574;9.976;2023-07-22T12:50:36;19.70;99.90
14749;DHT22;7466;53.574;9.976;2023-07-22T12:53:02;19.60;99.90
14749;DHT22;7466;53.574;9.976;2023-07-22T12:55:29;19.50;99.90
14749;DHT22;7466;53.574;9.976;2023-07-22T12:57:57;19.50;99.90
14749;DHT22;7466;53.574;9.976;2023-07-22T13:00:24;19.20;99.90
14749;DHT22;7466;53.574;9.976;2023-07-22T13:02:51;19.10;99.90
14749;DHT22;7466;53.574;9.976;2023-07-22T13:05:18;18.90;99.90
14749;DHT22;7466;53.574;9.976;2023-07-22T13:07:45;18.80;99.90
14749;DHT22;7466;53.574;9.976;2023-07-22T13:10:13;18.70;99.90
14749;DHT22;7466;53.574;9.976;2023-07-22T13:12:43;18.60;99.90
14749;DHT22;7466;53.574;9.976;2023-07-22T13:15:11;18.60;99.90
14749;DHT22;7466;53.574;9.976;2023-07-22T13:17:38;18.40;99.90
14749;DHT22;7466;53.574;9.976;2023-07-22T13:20:06;18.30;99.90
14749;DHT22;7466;53.574;9.976;2023-07-22T13:22:34;18.40;99.90
14749;DHT22;7466;53.574;9.976;2023-07-22T13:25:01;18.40;99.90
14749;DHT22;7466;53.574;9.976;2023-07-22T13:27:28;18.40;99.90
14749;DHT22;7466;53.574;9.976;2023-07-22T13:29:55;18.30;99.90
14749;DHT22;7466;53.574;9.976;2023-07-22T13:32:24;18.40;99.90
14749;DHT22;7466;53.574;9.976;2023-07-22T13:34:50;18.40;99.90
14749;DHT22;7466;53.574;9.976;2023-07-22T13:37:17;18.20;99.90
14749;DHT22;7466;53.574;9.976;2023-07-22T13:39:45;17.90;99.90
14749;DHT22;7466;53.574;9.976;2023-07-22T13:42:11;17.60;99.90
14749;DHT22;7466;53.574;9.976;2023-07-22T13:44:38;17.40;99.90
14749;DHT22;7466;53.574;9.976;2023-07-22T13:47:05;17.30;99.90
14749;DHT22;7466;53.574;9.976;2023-07-22T13:49:33;17.50;99.90
14749;DHT22;7466;53.574;9.976;2023-07-22T13:52:00;17.80;99.90
14749;DHT22;7466;53.574;9.976;2023-07-22T13:54:26;17.90;99.90
14749;DHT22;7466;53.574;9.976;2023-07-22T13:56:53;18.20;99.90
14749;DHT22;7466;53.574;9.976;2023-07-22T13:59:20;18.70;99.90
14749;DHT22;7466;53.574;9.976;2023-07-22T14:01:47;18.60;99.90
14749;DHT22;7466;53.574;9.976;2023-07-22T14:04:13;18.70;99.90
14749;DHT22;7466;53.574;9.976;2023-07-22T14:06:42;18.80;99.90
14749;DHT22;7466;53.574;9.976;2023-07-22T14:09:08;19.00;99.90
14749;DHT22;7466;53.574;9.976;2023-07-22T14:11:35;19.00;99.90
14749;DHT22;7466;53.574;9.976;2023-07-22T14:14:02;19.20;99.90
14749;DHT22;7466;53.574;9.976;2023-07-22T14:16:28;19.30;99.90
14749;DHT22;7466;53.574;9.976;2023-07-22T14:18:55;19.20;99.90
14749;DHT22;7466;53.574;9.976;2023-07-22T14:21:22;19.20;99.90
14749;DHT22;7466;53.574;9.976;2023-07-22T14:23:50;19.20;99.90
14749;DHT22;7466;53.574;9.976;2023-07-22T14:26:17;19.40;99.90
14749;DHT22;7466;53.574;9.976;2023-07-22T14:28:44;19.50;99.90
14749;DHT22;7466;53.574;9.976;2023-07-22T14:31:11;19.60;99.90
14749;DHT22;7466;53.574;9.976;2023-07-22T14:33:38;19.50;99.90
14749;DHT22;7466;53.574;9.976;2023-07-22T14:36:04;19.00;99.90
14749;DHT22;7466;53.574;9.976;2023-07-22T14:38:31;18.80;99.90
14749;DHT22;7466;53.574;9.976;2023-07-22T14:40:59;18.40;99.90
14749;DHT22;7466;53.574;9.976;2023-07-22T14:43:26;18.50;99.90
14749;DHT22;7466;53.574;9.976;2023-07-22T14:45:54;18.50;99.90
14749;DHT22;7466;53.574;9.976;2023-07-22T14:48:21;18.60;99.90
14749;DHT22;7466;53.574;9.976;2023-07-22T14:50:48;18.60;99.90
14749;DHT22;7466;53.574;9.976;2023-07-22T14:53:14;18.30;99.90
14749;DHT22;7466;53.574;9.976;2023-07-22T14:55:41;18.10;99.90
14749;DHT22;7466;53.574;9.976;2023-07-22T14:58:09;17.90;99.90
14749;DHT22;7466;53.574;9.976;2023-07-22T15:00:36;17.80;99.90
14749;DHT22;7466;53.574;9.976;2023-07-22T15:03:03;17.80;99.90
14749;DHT22;7466;53.574;9.976;2023-07-22T15:05:30;17.90;99.90
14749;DHT22;7466;53.574;9.976;2023-07-22T15:07:56;17.90;99.90
14749;DHT22;7466;53.574;9.976;2023-07-22T15:10:23;18.00;99.90
14749;DHT22;7466;53.574;9.976;2023-07-22T15:12:50;17.90;99.90
14749;DHT22;7466;53.574;9.976;2023-07-22T15:15:18;18.00;99.90
14749;DHT22;7466;53.574;9.976;2023-07-22T15:17:46;18.10;99.90
14749;DHT22;7466;53.574;9.976;2023-07-22T15:20:13;18.10;99.90
14749;DHT22;7466;53.574;9.976;2023-07-22T15:22:40;18.20;99.90
14749;DHT22;7466;53.574;9.976;2023-07-22T15:25:07;18.10;99.90
14749;DHT22;7466;53.574;9.976;2023-07-22T15:27:34;18.20;99.90
14749;DHT22;7466;53.574;9.976;2023-07-22T15:30:01;18.10;99.90
14749;DHT22;7466;53.574;9.976;2023-07-22T15:32:29;18.10;99.90
14749;DHT22;7466;53.574;9.976;2023-07-22T15:34:56;17.90;99.90
14749;DHT22;7466;53.574;9.976;2023-07-22T15:37:23;17.90;99.90
14749;DHT22;7466;53.574;9.976;2023-07-22T15:39:50;17.90;99.90
14749;DHT22;7466;53.574;9.976;2023-07-22T15:42:17;17.70;99.90
14749;DHT22;7466;53.574;9.976;2023-07-22T15:44:43;17.40;99.90
14749;DHT22;7466;53.574;9.976;2023-07-22T15:47:10;17.40;99.90